createdAt,value
2022-07-28T00:01:25.141Z,44.26
2022-07-28T00:03:52.033Z,44.24
2022-07-28T00:06:18.628Z,44.32
2022-07-28T00:08:45.220Z,44.41
2022-07-28T00:11:11.831Z,44.52
2022-07-28T00:13:38.415Z,44.40
2022-07-28T00:16:05.455Z,44.72
2022-07-28T00:18:32.073Z,44.48
2022-07-28T00:20:58.912Z,43.82
2022-07-28T00:23:38.524Z,44.24
2022-07-28T00:26:06.626Z,44.01
2022-07-28T00:28:33.189Z,44.20
2022-07-28T00:31:07.441Z,44.25
2022-07-28T00:33:37.551Z,44.52
2022-07-28T00:36:04.490Z,44.25
2022-07-28T00:38:33.838Z,44.39
2022-07-28T00:41:11.455Z,44.22
2022-07-28T00:43:49.339Z,44.31
2022-07-28T00:46:19.006Z,44.41
2022-07-28T00:48:53.794Z,44.38
2022-07-28T00:51:22.406Z,44.23
2022-07-28T00:53:49.241Z,44.63
2022-07-28T00:56:16.087Z,44.07
2022-07-28T00:58:43.133Z,43.52
2022-07-28T01:01:11.679Z,43.72
2022-07-28T01:03:41.763Z,43.63
2022-07-28T01:06:27.877Z,43.69
2022-07-28T01:09:09.233Z,44.37
2022-07-28T01:11:55.233Z,44.11
2022-07-28T01:14:39.649Z,42.95
2022-07-28T01:17:14.268Z,43.85
2022-07-28T01:19:53.650Z,43.97
2022-07-28T01:22:25.530Z,43.94
2022-07-28T01:25:12.633Z,44.13
2022-07-28T01:27:48.408Z,44.08
2022-07-28T01:30:27.701Z,44.73
2022-07-28T01:33:04.683Z,44.52
2022-07-28T01:35:38.127Z,44.22
2022-07-28T01:38:08.477Z,44.58
2022-07-28T01:40:36.942Z,45.04
2022-07-28T01:43:09.338Z,44.07
2022-07-28T01:45:41.257Z,44.65
2022-07-28T01:48:10.766Z,44.86
2022-07-28T01:50:39.736Z,44.82
2022-07-28T01:53:10.829Z,44.66
2022-07-28T01:55:38.698Z,44.92
2022-07-28T01:58:07.024Z,45.03
2022-07-28T02:00:35.378Z,45.24
2022-07-28T02:03:05.995Z,45.03
2022-07-28T02:05:35.166Z,44.84
2022-07-28T02:08:03.632Z,44.80
2022-07-28T02:10:31.718Z,45.10
2022-07-28T02:13:00.243Z,44.59
2022-07-28T02:15:28.384Z,44.99
2022-07-28T02:17:55.962Z,45.46
2022-07-28T02:20:23.595Z,44.74
2022-07-28T02:22:52.147Z,45.24
2022-07-28T02:25:20.365Z,44.99
2022-07-28T02:27:57.047Z,45.28
2022-07-28T02:30:30.765Z,44.96
2022-07-28T02:33:03.639Z,45.21
2022-07-28T02:35:34.543Z,45.32
2022-07-28T02:38:10.441Z,45.42
2022-07-28T02:40:39.494Z,45.69
2022-07-28T02:43:11.309Z,45.11
2022-07-28T02:45:41.670Z,45.05
2022-07-28T02:48:13.086Z,44.74
2022-07-28T02:50:41.504Z,45.57
2022-07-28T02:53:15.559Z,45.59
2022-07-28T02:55:46.247Z,45.34
2022-07-28T02:58:15.565Z,45.17
2022-07-28T03:00:43.092Z,45.68
2022-07-28T03:03:11.349Z,45.11
2022-07-28T03:05:41.193Z,45.47
2022-07-28T03:08:08.582Z,45.65
2022-07-28T03:10:35.226Z,45.55
2022-07-28T03:13:03.612Z,45.59
2022-07-28T03:15:31.093Z,45.53
2022-07-28T03:17:58.528Z,45.31
2022-07-28T03:20:25.196Z,46.09
2022-07-28T03:22:51.835Z,46.15
2022-07-28T03:25:28.197Z,46.16
2022-07-28T03:27:58.125Z,45.88
2022-07-28T03:30:34.986Z,45.72
2022-07-28T03:33:03.120Z,45.60
2022-07-28T03:35:32.696Z,45.57
2022-07-28T03:38:11.338Z,46.04
2022-07-28T03:40:39.133Z,46.01
2022-07-28T03:43:09.644Z,46.12
2022-07-28T03:45:36.664Z,46.18
2022-07-28T03:48:07.777Z,46.39
2022-07-28T03:50:34.921Z,46.25
2022-07-28T03:53:04.999Z,45.96
2022-07-28T03:55:31.677Z,46.47
2022-07-28T03:57:58.343Z,46.69
2022-07-28T04:00:25.902Z,46.44
2022-07-28T04:02:52.790Z,46.31
2022-07-28T04:05:19.684Z,45.86
2022-07-28T04:07:46.553Z,46.16
2022-07-28T04:10:15.880Z,45.94
2022-07-28T04:12:50.252Z,46.14
2022-07-28T04:15:18.090Z,46.17
2022-07-28T04:17:45.610Z,46.70
2022-07-28T04:20:12.586Z,46.71
2022-07-28T04:22:39.222Z,46.01
2022-07-28T04:25:06.404Z,46.74
2022-07-28T04:27:35.869Z,46.12
2022-07-28T04:30:08.113Z,46.20
2022-07-28T04:32:34.888Z,46.26
2022-07-28T04:35:01.593Z,46.43
2022-07-28T04:37:32.572Z,46.75
2022-07-28T04:39:59.929Z,46.70
2022-07-28T04:42:26.714Z,47.04
2022-07-28T04:44:53.414Z,46.28
2022-07-28T04:47:20.173Z,46.63
2022-07-28T04:49:46.755Z,46.81
2022-07-28T04:52:13.938Z,46.76
2022-07-28T04:54:40.547Z,46.63
2022-07-28T04:57:12.734Z,46.89
2022-07-28T04:59:39.858Z,46.77
2022-07-28T05:02:07.058Z,46.42
2022-07-28T05:04:33.737Z,46.92
2022-07-28T05:07:01.842Z,46.95
2022-07-28T05:09:34.802Z,47.18
2022-07-28T05:12:01.480Z,47.39
2022-07-28T05:14:28.215Z,47.71
2022-07-28T05:16:54.880Z,47.03
2022-07-28T05:19:21.545Z,47.18
2022-07-28T05:21:48.342Z,47.21
2022-07-28T05:24:15.401Z,46.88
2022-07-28T05:26:42.263Z,47.50
2022-07-28T05:29:08.943Z,47.49
2022-07-28T05:31:37.943Z,47.59
2022-07-28T05:34:06.041Z,47.13
2022-07-28T05:36:32.724Z,47.52
2022-07-28T05:38:59.388Z,47.83
2022-07-28T05:41:26.037Z,47.93
2022-07-28T05:43:52.605Z,47.54
2022-07-28T05:46:20.891Z,48.10
2022-07-28T05:48:47.708Z,48.67
2022-07-28T05:51:14.418Z,48.70
2022-07-28T05:53:41.106Z,49.23
2022-07-28T05:56:07.738Z,49.12
2022-07-28T05:58:34.345Z,49.00
2022-07-28T06:01:02.188Z,49.45
2022-07-28T06:03:32.126Z,49.47
2022-07-28T06:06:15.155Z,48.93
2022-07-28T06:08:43.219Z,49.69
2022-07-28T06:11:10.047Z,49.81
2022-07-28T06:13:37.570Z,49.86
2022-07-28T06:16:09.691Z,50.18
2022-07-28T06:18:39.329Z,50.03
2022-07-28T06:21:06.142Z,49.19
2022-07-28T06:23:32.737Z,50.00
2022-07-28T06:25:59.416Z,49.23
2022-07-28T06:28:26.036Z,50.00
2022-07-28T06:30:52.660Z,49.92
2022-07-28T06:33:19.289Z,49.59
2022-07-28T06:35:51.323Z,49.64
2022-07-28T06:38:20.475Z,49.54
2022-07-28T06:40:47.920Z,49.52
2022-07-28T06:43:14.784Z,49.83
2022-07-28T06:45:41.573Z,49.85
2022-07-28T06:48:08.721Z,49.54
2022-07-28T06:50:39.194Z,49.31
2022-07-28T06:53:06.055Z,49.81
2022-07-28T06:55:35.614Z,49.83
2022-07-28T06:58:05.820Z,50.10
2022-07-28T07:00:32.673Z,49.62
2022-07-28T07:03:00.723Z,49.68
2022-07-28T07:05:29.953Z,49.78
2022-07-28T07:07:56.603Z,49.95
2022-07-28T07:10:23.328Z,50.25
2022-07-28T07:12:50.327Z,50.37
2022-07-28T07:15:16.971Z,49.79
2022-07-28T07:17:43.677Z,50.15
2022-07-28T07:20:10.990Z,50.63
2022-07-28T07:22:45.944Z,50.94
2022-07-28T07:25:14.859Z,50.45
2022-07-28T07:27:41.700Z,49.72
2022-07-28T07:30:09.603Z,49.64
2022-07-28T07:32:37.315Z,49.29
2022-07-28T07:35:05.246Z,49.36
2022-07-28T07:37:32.655Z,49.58
2022-07-28T07:40:00.584Z,50.10
2022-07-28T07:42:28.060Z,49.97
2022-07-28T07:44:54.950Z,50.11
2022-07-28T07:47:21.806Z,49.83
2022-07-28T07:49:48.880Z,49.06
2022-07-28T07:52:15.724Z,49.73
2022-07-28T07:54:42.816Z,49.33
2022-07-28T07:57:10.243Z,48.94
2022-07-28T07:59:37.027Z,49.47
2022-07-28T08:02:03.928Z,49.99
2022-07-28T08:04:30.790Z,49.91
2022-07-28T08:06:57.512Z,49.60
2022-07-28T08:09:24.289Z,48.91
2022-07-28T08:11:51.080Z,49.28
2022-07-28T08:14:18.460Z,49.52
2022-07-28T08:16:45.320Z,49.55
2022-07-28T08:19:11.921Z,49.87
2022-07-28T08:21:38.711Z,49.41
2022-07-28T08:24:05.668Z,49.75
2022-07-28T08:26:32.413Z,49.43
2022-07-28T08:29:00.198Z,48.86
2022-07-28T08:31:26.939Z,49.12
2022-07-28T08:33:54.981Z,48.80
2022-07-28T08:36:22.680Z,48.26
2022-07-28T08:38:49.402Z,48.98
2022-07-28T08:41:53.871Z,48.66
2022-07-28T08:44:38.091Z,48.61
2022-07-28T08:47:07.527Z,48.06
2022-07-28T08:49:39.356Z,47.75
2022-07-28T08:52:10.803Z,47.31
2022-07-28T08:54:40.939Z,47.82
2022-07-28T08:57:08.771Z,47.51
2022-07-28T08:59:36.652Z,47.38
2022-07-28T09:02:03.353Z,47.55
2022-07-28T09:04:30.119Z,47.25
2022-07-28T09:06:56.840Z,47.77
2022-07-28T09:09:23.880Z,47.43
2022-07-28T09:11:50.665Z,47.68
2022-07-28T09:14:17.573Z,46.89
2022-07-28T09:16:44.712Z,47.30
2022-07-28T09:19:11.335Z,47.02
2022-07-28T09:21:38.093Z,47.25
2022-07-28T09:24:05.079Z,46.42
2022-07-28T09:26:31.708Z,46.29
2022-07-28T09:29:00.572Z,45.96
2022-07-28T09:31:29.155Z,45.98
2022-07-28T09:34:01.119Z,46.18
2022-07-28T09:36:38.845Z,45.50
2022-07-28T09:39:05.712Z,45.95
2022-07-28T09:41:49.339Z,45.00
2022-07-28T09:44:20.234Z,45.15
2022-07-28T09:46:47.474Z,46.51
2022-07-28T09:49:14.920Z,45.29
2022-07-28T09:51:42.413Z,45.54
2022-07-28T09:54:14.427Z,45.61
2022-07-28T09:56:45.943Z,44.95
2022-07-28T09:59:14.789Z,44.50
2022-07-28T10:01:56.473Z,44.00
2022-07-28T10:04:35.519Z,44.04
2022-07-28T10:07:14.297Z,43.89
2022-07-28T10:09:41.503Z,43.97
2022-07-28T10:12:22.681Z,44.45
2022-07-28T10:14:51.953Z,44.29
2022-07-28T10:17:26.323Z,43.87
2022-07-28T10:19:55.143Z,43.65
2022-07-28T10:22:23.558Z,43.96
2022-07-28T10:24:53.079Z,43.27
2022-07-28T10:27:23.062Z,43.24
2022-07-28T10:29:56.862Z,43.14
2022-07-28T10:32:23.854Z,43.25
2022-07-28T10:35:12.471Z,43.10
2022-07-28T10:38:11.370Z,43.12
2022-07-28T10:40:44.321Z,43.25
2022-07-28T10:43:12.198Z,42.62
2022-07-28T10:46:04.543Z,42.73
2022-07-28T10:48:27.238Z,42.45
2022-07-28T10:50:55.272Z,42.61
2022-07-28T10:53:40.871Z,42.16
2022-07-28T10:56:28.977Z,42.98
2022-07-28T10:59:04.940Z,43.29
2022-07-28T11:01:50.061Z,43.26
2022-07-28T11:04:41.707Z,42.24
2022-07-28T11:07:13.350Z,41.95
2022-07-28T11:09:40.213Z,41.69
2022-07-28T11:12:09.882Z,41.37
2022-07-28T11:14:39.390Z,42.26
2022-07-28T11:17:10.834Z,42.39
2022-07-28T11:20:01.079Z,42.02
2022-07-28T11:22:32.669Z,41.58
2022-07-28T11:25:00.849Z,41.15
2022-07-28T11:27:50.401Z,41.26
2022-07-28T11:30:26.429Z,41.18
2022-07-28T11:32:55.952Z,41.03
2022-07-28T11:35:27.403Z,40.86
2022-07-28T11:38:03.421Z,40.38
2022-07-28T11:40:40.368Z,39.97
2022-07-28T11:43:32.018Z,39.25
2022-07-28T11:46:07.031Z,39.43
2022-07-28T11:48:37.528Z,39.01
2022-07-28T11:51:04.226Z,39.49
2022-07-28T11:53:53.539Z,39.22
2022-07-28T11:56:32.324Z,38.88
2022-07-28T11:59:06.847Z,38.67
2022-07-28T12:01:38.541Z,38.96
2022-07-28T12:04:13.542Z,39.79
2022-07-28T12:06:42.572Z,39.58
2022-07-28T12:09:11.233Z,39.31
2022-07-28T12:11:42.144Z,39.49
2022-07-28T12:14:14.160Z,40.01
2022-07-28T12:16:43.772Z,39.74
2022-07-28T12:19:14.316Z,39.32
2022-07-28T12:21:51.162Z,39.54
2022-07-28T12:24:28.345Z,39.63
2022-07-28T12:26:57.785Z,38.77
2022-07-28T12:29:32.334Z,38.65
2022-07-28T12:32:09.164Z,38.11
2022-07-28T12:34:37.716Z,37.85
2022-07-28T12:37:09.554Z,37.54
2022-07-28T12:39:39.772Z,37.79
2022-07-28T12:42:08.325Z,37.39
2022-07-28T12:44:39.381Z,36.90
2022-07-28T12:47:08.779Z,36.85
2022-07-28T12:49:36.957Z,35.82
2022-07-28T12:52:23.254Z,34.50
2022-07-28T12:54:54.418Z,35.17
2022-07-28T12:57:50.554Z,35.55
2022-07-28T13:00:21.008Z,35.35
2022-07-28T13:02:49.560Z,34.78
2022-07-28T13:05:54.484Z,35.10
2022-07-28T13:08:23.087Z,34.29
2022-07-28T13:10:52.317Z,34.34
2022-07-28T13:13:23.697Z,33.42
2022-07-28T13:16:12.436Z,33.70
2022-07-28T13:18:40.553Z,33.29
2022-07-28T13:21:07.481Z,33.04
2022-07-28T13:23:34.136Z,33.16
2022-07-28T13:26:00.801Z,32.93
2022-07-28T13:28:27.723Z,32.98
2022-07-28T13:30:54.901Z,32.99
2022-07-28T13:33:21.739Z,32.51
2022-07-28T13:35:50.194Z,32.33
2022-07-28T13:38:17.793Z,33.19
2022-07-28T13:40:44.715Z,32.73
2022-07-28T13:43:11.535Z,32.75
2022-07-28T13:45:38.596Z,32.38
2022-07-28T13:48:05.749Z,32.43
2022-07-28T13:50:33.355Z,32.40
2022-07-28T13:52:59.944Z,32.21
2022-07-28T13:55:28.198Z,32.58
2022-07-28T13:57:55.049Z,32.65
2022-07-28T14:00:23.957Z,32.32
2022-07-28T14:02:51.176Z,32.38
2022-07-28T14:05:18.100Z,31.89
2022-07-28T14:07:48.230Z,32.19
2022-07-28T14:10:17.119Z,30.33
2022-07-28T14:12:45.978Z,31.38
2022-07-28T14:15:13.596Z,31.51
2022-07-28T14:17:43.525Z,32.46
2022-07-28T14:20:14.578Z,31.51
2022-07-28T14:22:42.877Z,30.81
2022-07-28T14:25:09.986Z,30.77
2022-07-28T14:27:36.817Z,30.44
2022-07-28T14:30:04.714Z,30.36
2022-07-28T14:32:32.875Z,31.10
2022-07-28T14:34:59.734Z,31.23
2022-07-28T14:37:36.265Z,31.55
2022-07-28T14:40:14.818Z,31.29
2022-07-28T14:42:42.055Z,31.31
2022-07-28T14:45:09.112Z,31.49
2022-07-28T14:47:43.929Z,31.00
2022-07-28T14:50:11.631Z,31.48
2022-07-28T14:52:38.232Z,30.82
2022-07-28T14:55:05.256Z,30.52
2022-07-28T14:57:50.310Z,30.70
2022-07-28T15:00:20.313Z,30.33
2022-07-28T15:02:47.677Z,31.24
2022-07-28T15:05:15.043Z,30.83
2022-07-28T15:07:42.390Z,31.16
2022-07-28T15:10:10.357Z,30.84
2022-07-28T15:12:37.198Z,30.88
2022-07-28T15:15:04.523Z,31.21
2022-07-28T15:17:31.228Z,31.12
2022-07-28T15:19:57.859Z,31.47
2022-07-28T15:22:26.541Z,31.51
2022-07-28T15:24:53.388Z,31.17
2022-07-28T15:27:20.012Z,31.04
2022-07-28T15:29:47.591Z,31.23
2022-07-28T15:32:19.424Z,30.83
2022-07-28T15:34:52.253Z,30.82
2022-07-28T15:37:18.864Z,31.46
2022-07-28T15:39:45.470Z,31.12
2022-07-28T15:42:12.102Z,31.29
2022-07-28T15:44:38.673Z,32.05
2022-07-28T15:47:05.488Z,31.28
2022-07-28T15:49:32.165Z,31.55
2022-07-28T15:52:00.858Z,31.42
2022-07-28T15:54:27.968Z,31.74
2022-07-28T15:56:54.558Z,31.75
2022-07-28T15:59:21.150Z,31.94
2022-07-28T16:01:48.437Z,31.81
2022-07-28T16:04:15.444Z,32.19
2022-07-28T16:07:01.029Z,32.32
2022-07-28T16:09:45.877Z,32.25
2022-07-28T16:12:14.186Z,31.85
2022-07-28T16:14:41.816Z,31.89
2022-07-28T16:17:08.631Z,32.08
2022-07-28T16:19:48.587Z,31.96
2022-07-28T16:22:16.597Z,32.11
2022-07-28T16:24:43.286Z,32.16
2022-07-28T16:27:10.159Z,31.87
2022-07-28T16:29:37.965Z,32.18
2022-07-28T16:32:05.179Z,32.16
2022-07-28T16:34:31.833Z,31.97
2022-07-28T16:36:59.974Z,32.34
2022-07-28T16:39:26.623Z,32.08
2022-07-28T16:41:53.321Z,32.74
2022-07-28T16:44:20.185Z,32.39
2022-07-28T16:46:46.978Z,32.68
2022-07-28T16:49:15.853Z,32.05
2022-07-28T16:51:42.585Z,32.31
2022-07-28T16:54:09.200Z,32.14
2022-07-28T16:56:35.867Z,32.58
2022-07-28T16:59:02.685Z,32.64
2022-07-28T17:01:29.528Z,32.53
2022-07-28T17:03:56.175Z,32.36
2022-07-28T17:06:22.814Z,32.52
2022-07-28T17:08:49.424Z,32.54
2022-07-28T17:11:16.078Z,32.73
2022-07-28T17:13:45.435Z,32.66
2022-07-28T17:16:12.893Z,32.96
2022-07-28T17:18:39.576Z,32.92
2022-07-28T17:21:06.366Z,32.83
2022-07-28T17:23:34.624Z,32.99
2022-07-28T17:28:54.287Z,33.65
2022-07-28T17:31:21.577Z,33.38
2022-07-28T17:33:48.243Z,33.30
2022-07-28T17:36:15.907Z,33.50
2022-07-28T17:38:45.442Z,33.68
2022-07-28T17:41:12.090Z,33.87
2022-07-28T17:43:43.642Z,33.17
2022-07-28T17:46:12.827Z,33.11
2022-07-28T17:48:39.777Z,33.96
2022-07-28T17:51:06.569Z,34.08
2022-07-28T17:53:33.645Z,33.89
2022-07-28T17:56:08.523Z,34.15
2022-07-28T17:58:35.922Z,34.02
2022-07-28T18:01:10.753Z,34.09
2022-07-28T18:03:59.690Z,34.15
2022-07-28T18:06:30.397Z,34.12
2022-07-28T18:08:57.641Z,34.27
2022-07-28T18:11:32.197Z,34.41
2022-07-28T18:14:04.919Z,34.34
2022-07-28T18:16:33.175Z,34.65
2022-07-28T18:18:59.783Z,33.93
2022-07-28T18:21:26.679Z,34.11
2022-07-28T18:23:54.707Z,34.43
2022-07-28T18:26:21.979Z,34.73
2022-07-28T18:28:48.933Z,34.35
2022-07-28T18:31:15.658Z,34.61
2022-07-28T18:33:42.354Z,34.52
2022-07-28T18:36:09.099Z,34.32
2022-07-28T18:38:35.758Z,34.08
2022-07-28T18:41:02.369Z,33.47
2022-07-28T18:43:28.981Z,33.80
2022-07-28T18:45:55.699Z,33.31
2022-07-28T18:48:25.286Z,35.77
2022-07-28T18:50:52.030Z,41.97
2022-07-28T18:53:18.762Z,44.39
2022-07-28T18:55:45.411Z,44.35
2022-07-28T18:58:12.047Z,46.28
2022-07-28T19:00:38.886Z,46.88
2022-07-28T19:03:06.021Z,45.93
2022-07-28T19:05:36.479Z,45.74
2022-07-28T19:08:04.549Z,47.24
2022-07-28T19:10:32.224Z,45.88
2022-07-28T19:12:59.281Z,45.76
2022-07-28T19:15:26.086Z,46.64
2022-07-28T19:18:10.451Z,45.36
2022-07-28T19:20:39.543Z,46.97
2022-07-28T19:23:06.516Z,45.33
2022-07-28T19:25:35.569Z,45.13
2022-07-28T19:28:02.433Z,44.36
2022-07-28T19:30:30.771Z,43.83
2022-07-28T19:32:57.996Z,45.69
2022-07-28T19:35:24.608Z,51.29
2022-07-28T19:37:51.210Z,52.10
2022-07-28T19:40:17.886Z,50.32
2022-07-28T19:42:44.642Z,48.36
2022-07-28T19:45:11.236Z,47.24
2022-07-28T19:47:39.120Z,47.70
2022-07-28T19:50:06.025Z,46.47
2022-07-28T19:52:33.463Z,49.11
2022-07-28T19:55:01.213Z,49.09
2022-07-28T19:57:30.899Z,53.47
2022-07-28T19:59:58.742Z,55.80
2022-07-28T20:02:25.419Z,54.66
2022-07-28T20:04:52.035Z,54.66
2022-07-28T20:07:18.757Z,52.44
2022-07-28T20:09:45.388Z,50.34
2022-07-28T20:12:12.017Z,49.12
2022-07-28T20:14:38.655Z,50.62
2022-07-28T20:17:05.399Z,50.93
2022-07-28T20:19:32.145Z,52.01
2022-07-28T20:21:58.786Z,52.58
2022-07-28T20:24:25.512Z,52.23
2022-07-28T20:26:52.187Z,50.63
2022-07-28T20:29:18.810Z,52.02
2022-07-28T20:31:45.405Z,51.83
2022-07-28T20:34:12.951Z,52.35
2022-07-28T20:36:39.969Z,52.21
2022-07-28T20:39:21.445Z,52.58
2022-07-28T20:41:53.467Z,52.12
2022-07-28T20:44:29.169Z,52.31
2022-07-28T20:46:58.638Z,51.07
2022-07-28T20:49:25.349Z,51.16
2022-07-28T20:51:52.071Z,50.97
2022-07-28T20:54:19.054Z,51.67
2022-07-28T20:56:45.712Z,51.85
2022-07-28T20:59:12.396Z,53.19
2022-07-28T21:01:39.708Z,52.69
2022-07-28T21:04:06.354Z,51.33
2022-07-28T21:06:37.993Z,52.57
2022-07-28T21:09:05.407Z,51.17
2022-07-28T21:11:34.991Z,50.86
2022-07-28T21:14:02.071Z,52.31
2022-07-28T21:16:28.828Z,51.90
2022-07-28T21:18:55.552Z,53.01
2022-07-28T21:21:22.885Z,52.63
2022-07-28T21:23:49.649Z,51.82
2022-07-28T21:26:16.812Z,51.93
2022-07-28T21:29:02.050Z,52.27
2022-07-28T21:31:28.654Z,51.54
2022-07-28T21:33:55.295Z,51.33
2022-07-28T21:36:21.954Z,51.94
2022-07-28T21:38:48.718Z,51.61
2022-07-28T21:41:15.434Z,52.00
2022-07-28T21:43:42.030Z,51.68
2022-07-28T21:46:09.001Z,51.71
2022-07-28T21:48:35.684Z,52.07
2022-07-28T21:51:02.309Z,52.29
2022-07-28T21:53:28.959Z,52.66
2022-07-28T21:55:57.077Z,54.07
2022-07-28T21:58:23.680Z,52.88
2022-07-28T22:00:50.340Z,52.02
2022-07-28T22:03:17.048Z,52.66
2022-07-28T22:05:43.706Z,52.68
2022-07-28T22:08:10.811Z,53.03
2022-07-28T22:10:37.483Z,55.10
2022-07-28T22:13:04.174Z,56.64
2022-07-28T22:15:30.822Z,57.66
2022-07-28T22:17:57.439Z,57.33
2022-07-28T22:20:24.091Z,56.34
2022-07-28T22:22:50.683Z,55.97
2022-07-28T22:25:17.274Z,54.99
2022-07-28T22:27:43.882Z,54.90
2022-07-28T22:30:10.551Z,55.07
2022-07-28T22:32:37.165Z,55.59
2022-07-28T22:35:04.068Z,54.49
2022-07-28T22:37:30.702Z,55.02
2022-07-28T22:39:57.320Z,53.81
2022-07-28T22:42:23.929Z,53.87
2022-07-28T22:44:50.598Z,54.49
2022-07-28T22:47:17.233Z,53.73
2022-07-28T22:49:43.887Z,53.65
2022-07-28T22:52:10.526Z,54.52
2022-07-28T22:54:38.975Z,55.57
2022-07-28T22:57:06.193Z,54.96
2022-07-28T22:59:38.500Z,54.67
2022-07-28T23:02:06.879Z,54.05
2022-07-28T23:04:33.496Z,55.31
2022-07-28T23:07:00.108Z,55.07
2022-07-28T23:09:26.881Z,55.25
2022-07-28T23:11:55.713Z,53.76
2022-07-28T23:14:22.873Z,54.87
2022-07-28T23:16:49.503Z,53.37
2022-07-28T23:19:16.455Z,56.01
2022-07-28T23:21:43.067Z,55.65
2022-07-28T23:24:09.724Z,55.51
2022-07-28T23:26:36.536Z,55.30
2022-07-28T23:29:03.460Z,55.34
2022-07-28T23:31:30.355Z,54.65
2022-07-28T23:33:57.723Z,54.14
2022-07-28T23:36:26.780Z,53.71
2022-07-28T23:38:58.324Z,53.94
2022-07-28T23:41:25.876Z,54.13
2022-07-28T23:43:52.907Z,54.41
2022-07-28T23:46:19.592Z,54.92
2022-07-28T23:48:46.443Z,54.39
2022-07-28T23:51:14.101Z,54.26
2022-07-28T23:53:43.629Z,54.65
2022-07-28T23:56:10.628Z,54.53
2022-07-28T23:58:37.237Z,53.66
